sensor_id;sensor_type;location;lat;lon;timestamp;pressure;altitude;pressure_sealevel;temperature;humidity
71151;BME280;59071;42.138;24.768;2022-07-23T00:01:33;99740.59;;;26.06;39.71
71151;BME280;59071;42.138;24.768;2022-07-23T00:03:59;99743.72;;;26.13;40.14
71151;BME280;59071;42.138;24.768;2022-07-23T00:06:25;99733.50;;;25.91;40.92
71151;BME280;59071;42.138;24.768;2022-07-23T00:08:50;99743.63;;;26.04;40.11
71151;BME280;59071;42.138;24.768;2022-07-23T00:11:16;99741.78;;;26.13;39.99
71151;BME280;59071;42.138;24.768;2022-07-23T00:13:42;99748.56;;;26.16;40.17
71151;BME280;59071;42.138;24.768;2022-07-23T00:16:07;99742.81;;;26.04;40.38
71151;BME280;59071;42.138;24.768;2022-07-23T00:18:33;99740.81;;;25.96;41.26
71151;BME280;59071;42.138;24.768;2022-07-23T00:20:58;99743.25;;;25.69;41.70
71151;BME280;59071;42.138;24.768;2022-07-23T00:23:24;99745.66;;;25.71;41.78
71151;BME280;59071;42.138;24.768;2022-07-23T00:25:51;99743.75;;;25.71;41.75
71151;BME280;59071;42.138;24.768;2022-07-23T00:28:17;99747.47;;;25.89;41.15
71151;BME280;59071;42.138;24.768;2022-07-23T00:30:43;99735.19;;;25.92;41.24
71151;BME280;59071;42.138;24.768;2022-07-23T00:33:08;99737.16;;;25.86;41.40
71151;BME280;59071;42.138;24.768;2022-07-23T00:35:37;99741.44;;;25.65;41.96
71151;BME280;59071;42.138;24.768;2022-07-23T00:38:04;99743.97;;;25.61;41.71
71151;BME280;59071;42.138;24.768;2022-07-23T00:40:30;99745.88;;;25.61;41.92
71151;BME280;59071;42.138;24.768;2022-07-23T00:42:56;99747.19;;;25.63;42.13
71151;BME280;59071;42.138;24.768;2022-07-23T00:45:22;99747.88;;;25.55;42.04
71151;BME280;59071;42.138;24.768;2022-07-23T00:47:48;99738.53;;;25.61;41.92
71151;BME280;59071;42.138;24.768;2022-07-23T00:50:14;99736.88;;;25.60;42.13
71151;BME280;59071;42.138;24.768;2022-07-23T00:52:40;99757.97;;;25.82;41.66
71151;BME280;59071;42.138;24.768;2022-07-23T00:55:07;99755.06;;;25.65;42.42
71151;BME280;59071;42.138;24.768;2022-07-23T00:57:33;99758.97;;;25.59;42.94
71151;BME280;59071;42.138;24.768;2022-07-23T00:59:59;99757.06;;;25.45;43.36
71151;BME280;59071;42.138;24.768;2022-07-23T01:02:25;99760.28;;;25.47;43.66
71151;BME280;59071;42.138;24.768;2022-07-23T01:04:51;99761.09;;;25.34;43.99
71151;BME280;59071;42.138;24.768;2022-07-23T01:07:18;99759.91;;;25.40;44.22
71151;BME280;59071;42.138;24.768;2022-07-23T01:09:44;99759.28;;;25.43;44.11
71151;BME280;59071;42.138;24.768;2022-07-23T01:12:10;99755.97;;;25.46;43.93
71151;BME280;59071;42.138;24.768;2022-07-23T01:14:35;99755.06;;;25.37;44.07
71151;BME280;59071;42.138;24.768;2022-07-23T01:17:01;99748.50;;;25.38;44.11
71151;BME280;59071;42.138;24.768;2022-07-23T01:19:26;99753.13;;;25.38;44.34
71151;BME280;59071;42.138;24.768;2022-07-23T01:21:53;99747.47;;;25.34;44.35
71151;BME280;59071;42.138;24.768;2022-07-23T01:24:20;99749.41;;;25.33;44.39
71151;BME280;59071;42.138;24.768;2022-07-23T01:26:47;99746.47;;;25.30;44.52
71151;BME280;59071;42.138;24.768;2022-07-23T01:29:13;99746.88;;;25.37;44.86
71151;BME280;59071;42.138;24.768;2022-07-23T01:31:39;99748.91;;;25.31;44.52
71151;BME280;59071;42.138;24.768;2022-07-23T01:34:05;99750.75;;;25.36;44.41
71151;BME280;59071;42.138;24.768;2022-07-23T01:36:36;99758.69;;;25.32;45.01
71151;BME280;59071;42.138;24.768;2022-07-23T01:39:03;99755.97;;;25.32;44.98
71151;BME280;59071;42.138;24.768;2022-07-23T01:41:29;99763.81;;;25.34;44.90
71151;BME280;59071;42.138;24.768;2022-07-23T01:43:54;99750.03;;;25.30;44.78
71151;BME280;59071;42.138;24.768;2022-07-23T01:46:20;99750.41;;;25.24;44.65
71151;BME280;59071;42.138;24.768;2022-07-23T01:48:45;99753.69;;;25.07;45.06
71151;BME280;59071;42.138;24.768;2022-07-23T01:51:11;99734.78;;;25.29;44.34
71151;BME280;59071;42.138;24.768;2022-07-23T01:53:36;99747.91;;;25.27;44.53
71151;BME280;59071;42.138;24.768;2022-07-23T01:56:02;99761.06;;;25.20;44.83
71151;BME280;59071;42.138;24.768;2022-07-23T01:58:28;99758.13;;;25.16;44.52
71151;BME280;59071;42.138;24.768;2022-07-23T02:00:54;99755.69;;;25.15;44.18
71151;BME280;59071;42.138;24.768;2022-07-23T02:03:21;99747.09;;;25.27;44.11
71151;BME280;59071;42.138;24.768;2022-07-23T02:05:46;99752.97;;;25.15;43.95
71151;BME280;59071;42.138;24.768;2022-07-23T02:08:12;99749.03;;;25.07;44.26
71151;BME280;59071;42.138;24.768;2022-07-23T02:10:37;99754.81;;;25.20;43.83
71151;BME280;59071;42.138;24.768;2022-07-23T02:13:03;99756.91;;;25.09;44.35
71151;BME280;59071;42.138;24.768;2022-07-23T02:15:28;99752.44;;;24.99;45.26
71151;BME280;59071;42.138;24.768;2022-07-23T02:17:54;99760.91;;;24.97;45.06
71151;BME280;59071;42.138;24.768;2022-07-23T02:20:20;99758.53;;;25.10;44.19
71151;BME280;59071;42.138;24.768;2022-07-23T02:22:46;99754.81;;;25.06;44.18
71151;BME280;59071;42.138;24.768;2022-07-23T02:25:11;99758.09;;;25.03;43.84
71151;BME280;59071;42.138;24.768;2022-07-23T02:27:37;99755.53;;;25.11;43.86
71151;BME280;59071;42.138;24.768;2022-07-23T02:30:03;99759.31;;;24.96;43.87
71151;BME280;59071;42.138;24.768;2022-07-23T02:32:29;99759.81;;;24.98;44.05
71151;BME280;59071;42.138;24.768;2022-07-23T02:34:54;99759.53;;;25.00;44.15
71151;BME280;59071;42.138;24.768;2022-07-23T02:37:19;99750.63;;;24.94;44.37
71151;BME280;59071;42.138;24.768;2022-07-23T02:39:45;99756.47;;;24.88;44.46
71151;BME280;59071;42.138;24.768;2022-07-23T02:42:10;99752.22;;;24.82;44.93
71151;BME280;59071;42.138;24.768;2022-07-23T02:44:36;99763.09;;;24.82;45.17
71151;BME280;59071;42.138;24.768;2022-07-23T02:47:02;99762.88;;;24.78;45.06
71151;BME280;59071;42.138;24.768;2022-07-23T02:49:27;99763.59;;;24.84;44.92
71151;BME280;59071;42.138;24.768;2022-07-23T02:51:52;99758.97;;;24.84;44.83
71151;BME280;59071;42.138;24.768;2022-07-23T02:54:18;99762.66;;;24.74;44.91
71151;BME280;59071;42.138;24.768;2022-07-23T02:56:44;99766.31;;;24.84;44.77
71151;BME280;59071;42.138;24.768;2022-07-23T02:59:09;99768.03;;;24.80;45.03
71151;BME280;59071;42.138;24.768;2022-07-23T03:01:36;99768.72;;;24.71;45.01
71151;BME280;59071;42.138;24.768;2022-07-23T03:04:01;99767.63;;;24.86;44.77
71151;BME280;59071;42.138;24.768;2022-07-23T03:06:27;99771.63;;;24.75;45.14
71151;BME280;59071;42.138;24.768;2022-07-23T03:08:52;99772.75;;;24.74;44.85
71151;BME280;59071;42.138;24.768;2022-07-23T03:11:17;99778.72;;;24.90;44.59
71151;BME280;59071;42.138;24.768;2022-07-23T03:13:43;99766.09;;;24.80;44.71
71151;BME280;59071;42.138;24.768;2022-07-23T03:16:09;99772.53;;;24.70;45.35
71151;BME280;59071;42.138;24.768;2022-07-23T03:18:34;99769.09;;;24.65;45.28
71151;BME280;59071;42.138;24.768;2022-07-23T03:21:00;99775.19;;;24.75;44.49
71151;BME280;59071;42.138;24.768;2022-07-23T03:23:25;99784.66;;;24.78;44.59
71151;BME280;59071;42.138;24.768;2022-07-23T03:25:51;99772.16;;;24.77;44.79
71151;BME280;59071;42.138;24.768;2022-07-23T03:28:17;99780.16;;;24.87;44.59
71151;BME280;59071;42.138;24.768;2022-07-23T03:30:47;99777.22;;;24.84;44.85
71151;BME280;59071;42.138;24.768;2022-07-23T03:33:14;99776.94;;;24.66;45.18
71151;BME280;59071;42.138;24.768;2022-07-23T03:35:42;99779.16;;;24.64;45.51
71151;BME280;59071;42.138;24.768;2022-07-23T03:38:07;99785.09;;;24.85;44.90
71151;BME280;59071;42.138;24.768;2022-07-23T03:40:32;99784.59;;;24.97;44.97
71151;BME280;59071;42.138;24.768;2022-07-23T03:42:58;99783.38;;;24.89;45.03
71151;BME280;59071;42.138;24.768;2022-07-23T03:45:23;99781.41;;;24.76;45.08
71151;BME280;59071;42.138;24.768;2022-07-23T03:47:49;99774.34;;;24.75;45.05
71151;BME280;59071;42.138;24.768;2022-07-23T03:50:14;99779.88;;;25.03;44.49
71151;BME280;59071;42.138;24.768;2022-07-23T03:52:40;99784.84;;;25.14;44.28
71151;BME280;59071;42.138;24.768;2022-07-23T03:55:06;99785.81;;;25.38;43.88
71151;BME280;59071;42.138;24.768;2022-07-23T03:57:31;99782.91;;;25.48;43.61
71151;BME280;59071;42.138;24.768;2022-07-23T03:59:57;99778.59;;;25.14;43.36
71151;BME280;59071;42.138;24.768;2022-07-23T04:02:22;99790.03;;;25.30;42.74
71151;BME280;59071;42.138;24.768;2022-07-23T04:04:48;99771.75;;;25.16;42.64
71151;BME280;59071;42.138;24.768;2022-07-23T04:07:14;99780.78;;;25.59;41.87
71151;BME280;59071;42.138;24.768;2022-07-23T04:09:39;99777.84;;;25.83;41.40
71151;BME280;59071;42.138;24.768;2022-07-23T04:12:08;99776.28;;;26.32;40.37
71151;BME280;59071;42.138;24.768;2022-07-23T04:14:33;99782.81;;;26.45;40.50
71151;BME280;59071;42.138;24.768;2022-07-23T04:16:59;99785.63;;;26.76;39.77
71151;BME280;59071;42.138;24.768;2022-07-23T04:19:25;99785.25;;;26.69;40.01
71151;BME280;59071;42.138;24.768;2022-07-23T04:21:50;99786.78;;;27.06;39.25
71151;BME280;59071;42.138;24.768;2022-07-23T04:24:16;99791.28;;;27.34;38.58
71151;BME280;59071;42.138;24.768;2022-07-23T04:26:41;99802.13;;;27.47;38.22
71151;BME280;59071;42.138;24.768;2022-07-23T04:29:07;99792.44;;;27.41;38.06
71151;BME280;59071;42.138;24.768;2022-07-23T04:31:32;99788.59;;;27.42;37.97
71151;BME280;59071;42.138;24.768;2022-07-23T04:33:58;99789.81;;;27.27;38.27
71151;BME280;59071;42.138;24.768;2022-07-23T04:36:24;99791.81;;;27.13;38.35
71151;BME280;59071;42.138;24.768;2022-07-23T04:38:49;99791.53;;;27.55;37.81
71151;BME280;59071;42.138;24.768;2022-07-23T04:41:15;99789.19;;;27.79;37.28
71151;BME280;59071;42.138;24.768;2022-07-23T04:43:40;99788.28;;;27.93;36.87
71151;BME280;59071;42.138;24.768;2022-07-23T04:46:05;99782.06;;;28.10;36.71
71151;BME280;59071;42.138;24.768;2022-07-23T04:48:31;99792.38;;;28.30;36.38
71151;BME280;59071;42.138;24.768;2022-07-23T04:50:56;99787.59;;;28.53;35.90
71151;BME280;59071;42.138;24.768;2022-07-23T04:53:22;99803.69;;;28.81;35.54
71151;BME280;59071;42.138;24.768;2022-07-23T04:55:47;99799.75;;;29.08;35.05
71151;BME280;59071;42.138;24.768;2022-07-23T04:58:13;99802.28;;;29.31;34.80
71151;BME280;59071;42.138;24.768;2022-07-23T05:00:38;99797.75;;;29.35;34.62
71151;BME280;59071;42.138;24.768;2022-07-23T05:03:04;99798.41;;;29.32;34.72
71151;BME280;59071;42.138;24.768;2022-07-23T05:05:29;99788.41;;;29.36;34.09
71151;BME280;59071;42.138;24.768;2022-07-23T05:07:55;99802.94;;;29.66;34.29
71151;BME280;59071;42.138;24.768;2022-07-23T05:10:20;99797.22;;;30.10;33.61
71151;BME280;59071;42.138;24.768;2022-07-23T05:12:45;99795.63;;;30.93;32.23
71151;BME280;59071;42.138;24.768;2022-07-23T05:15:11;99807.16;;;30.65;32.72
71151;BME280;59071;42.138;24.768;2022-07-23T05:17:36;99795.25;;;30.61;32.82
71151;BME280;59071;42.138;24.768;2022-07-23T05:20:02;99792.59;;;30.86;32.59
71151;BME280;59071;42.138;24.768;2022-07-23T05:22:28;99794.50;;;31.06;32.71
71151;BME280;59071;42.138;24.768;2022-07-23T05:24:54;99790.94;;;31.51;31.79
71151;BME280;59071;42.138;24.768;2022-07-23T05:27:19;99793.16;;;32.36;30.59
71151;BME280;59071;42.138;24.768;2022-07-23T05:29:44;99797.56;;;32.12;30.39
71151;BME280;59071;42.138;24.768;2022-07-23T05:32:10;99793.00;;;31.79;31.18
71151;BME280;59071;42.138;24.768;2022-07-23T05:34:35;99793.13;;;31.70;31.18
71151;BME280;59071;42.138;24.768;2022-07-23T05:37:01;99793.91;;;32.08;30.78
71151;BME280;59071;42.138;24.768;2022-07-23T05:39:26;99783.00;;;32.52;30.33
71151;BME280;59071;42.138;24.768;2022-07-23T05:41:51;99790.88;;;32.94;29.58
71151;BME280;59071;42.138;24.768;2022-07-23T05:44:17;99788.94;;;34.09;28.18
71151;BME280;59071;42.138;24.768;2022-07-23T05:46:42;99778.97;;;33.54;28.58
71151;BME280;59071;42.138;24.768;2022-07-23T05:49:08;99785.56;;;33.33;28.78
71151;BME280;59071;42.138;24.768;2022-07-23T05:51:33;99798.47;;;33.45;29.03
71151;BME280;59071;42.138;24.768;2022-07-23T05:53:59;99798.84;;;33.95;28.28
71151;BME280;59071;42.138;24.768;2022-07-23T05:56:24;99799.16;;;34.25;28.12
71151;BME280;59071;42.138;24.768;2022-07-23T05:58:49;99806.22;;;34.42;28.08
71151;BME280;59071;42.138;24.768;2022-07-23T06:01:15;99794.03;;;34.23;28.33
71151;BME280;59071;42.138;24.768;2022-07-23T06:03:40;99790.47;;;34.42;27.69
71151;BME280;59071;42.138;24.768;2022-07-23T06:06:06;99791.25;;;34.82;27.17
71151;BME280;59071;42.138;24.768;2022-07-23T06:08:31;99791.78;;;35.57;26.54
71151;BME280;59071;42.138;24.768;2022-07-23T06:10:57;99787.75;;;35.77;26.52
71151;BME280;59071;42.138;24.768;2022-07-23T06:13:22;99781.66;;;35.41;26.31
71151;BME280;59071;42.138;24.768;2022-07-23T06:15:48;99791.09;;;35.40;26.54
71151;BME280;59071;42.138;24.768;2022-07-23T06:18:16;99794.53;;;35.57;26.92
71151;BME280;59071;42.138;24.768;2022-07-23T06:20:42;99795.94;;;36.24;26.17
71151;BME280;59071;42.138;24.768;2022-07-23T06:23:07;99790.03;;;36.29;25.78
71151;BME280;59071;42.138;24.768;2022-07-23T06:25:33;99791.88;;;36.17;25.77
71151;BME280;59071;42.138;24.768;2022-07-23T06:27:58;99793.75;;;36.40;25.63
71151;BME280;59071;42.138;24.768;2022-07-23T06:30:25;99802.09;;;36.74;25.51
71151;BME280;59071;42.138;24.768;2022-07-23T06:32:50;99796.47;;;36.67;25.10
71151;BME280;59071;42.138;24.768;2022-07-23T06:35:16;99797.28;;;37.53;24.38
71151;BME280;59071;42.138;24.768;2022-07-23T06:37:41;99787.16;;;37.27;24.79
71151;BME280;59071;42.138;24.768;2022-07-23T06:40:07;99786.66;;;36.76;25.73
71151;BME280;59071;42.138;24.768;2022-07-23T06:42:33;99783.13;;;36.79;25.18
71151;BME280;59071;42.138;24.768;2022-07-23T06:44:58;99785.53;;;37.19;24.78
71151;BME280;59071;42.138;24.768;2022-07-23T06:47:24;99777.84;;;37.49;24.29
71151;BME280;59071;42.138;24.768;2022-07-23T06:49:49;99784.22;;;37.53;24.50
71151;BME280;59071;42.138;24.768;2022-07-23T06:52:15;99777.91;;;37.60;24.29
71151;BME280;59071;42.138;24.768;2022-07-23T06:54:40;99775.81;;;37.46;24.66
71151;BME280;59071;42.138;24.768;2022-07-23T06:57:06;99775.56;;;37.62;23.70
71151;BME280;59071;42.138;24.768;2022-07-23T06:59:31;99771.69;;;37.74;23.61
71151;BME280;59071;42.138;24.768;2022-07-23T07:01:58;99774.41;;;38.47;23.34
71151;BME280;59071;42.138;24.768;2022-07-23T07:04:23;99763.25;;;38.26;23.64
71151;BME280;59071;42.138;24.768;2022-07-23T07:06:48;99768.56;;;37.86;24.07
71151;BME280;59071;42.138;24.768;2022-07-23T07:09:14;99767.44;;;37.98;23.24
71151;BME280;59071;42.138;24.768;2022-07-23T07:11:39;99771.97;;;38.28;23.23
71151;BME280;59071;42.138;24.768;2022-07-23T07:14:05;99773.75;;;38.83;22.52
71151;BME280;59071;42.138;24.768;2022-07-23T07:16:31;99761.06;;;39.07;21.89
71151;BME280;59071;42.138;24.768;2022-07-23T07:18:56;99763.00;;;38.78;22.38
71151;BME280;59071;42.138;24.768;2022-07-23T07:21:22;99760.88;;;38.28;22.35
71151;BME280;59071;42.138;24.768;2022-07-23T07:23:47;99755.44;;;38.64;22.09
71151;BME280;59071;42.138;24.768;2022-07-23T07:26:12;99755.09;;;38.94;21.97
71151;BME280;59071;42.138;24.768;2022-07-23T07:28:38;99756.69;;;39.42;21.14
71151;BME280;59071;42.138;24.768;2022-07-23T07:31:03;99753.09;;;38.87;22.14
71151;BME280;59071;42.138;24.768;2022-07-23T07:33:29;99753.53;;;39.00;21.41
71151;BME280;59071;42.138;24.768;2022-07-23T07:35:55;99753.53;;;39.04;21.42
71151;BME280;59071;42.138;24.768;2022-07-23T07:38:20;99745.56;;;39.38;21.20
71151;BME280;59071;42.138;24.768;2022-07-23T07:40:46;99750.72;;;39.54;21.87
71151;BME280;59071;42.138;24.768;2022-07-23T07:43:11;99744.84;;;40.51;20.55
71151;BME280;59071;42.138;24.768;2022-07-23T07:45:36;99740.28;;;40.01;21.04
71151;BME280;59071;42.138;24.768;2022-07-23T07:48:02;99743.44;;;40.07;20.45
71151;BME280;59071;42.138;24.768;2022-07-23T07:50:28;99734.31;;;40.06;20.53
71151;BME280;59071;42.138;24.768;2022-07-23T07:52:53;99730.31;;;40.07;20.05
71151;BME280;59071;42.138;24.768;2022-07-23T07:55:19;99735.78;;;40.29;20.27
71151;BME280;59071;42.138;24.768;2022-07-23T07:57:44;99733.19;;;40.67;19.83
71151;BME280;59071;42.138;24.768;2022-07-23T08:00:10;99729.38;;;40.39;19.93
71151;BME280;59071;42.138;24.768;2022-07-23T08:03:00;99728.63;;;40.35;20.46
71151;BME280;59071;42.138;24.768;2022-07-23T08:05:28;99732.19;;;40.36;20.43
71151;BME280;59071;42.138;24.768;2022-07-23T08:07:55;99727.94;;;40.80;19.33
71151;BME280;59071;42.138;24.768;2022-07-23T08:10:21;99730.47;;;40.56;19.92
71151;BME280;59071;42.138;24.768;2022-07-23T08:12:48;99728.47;;;40.57;19.86
71151;BME280;59071;42.138;24.768;2022-07-23T08:15:17;99724.03;;;40.67;19.62
71151;BME280;59071;42.138;24.768;2022-07-23T08:17:44;99724.75;;;40.74;19.53
71151;BME280;59071;42.138;24.768;2022-07-23T08:20:12;99721.19;;;40.77;19.07
71151;BME280;59071;42.138;24.768;2022-07-23T08:22:57;99709.91;;;41.40;18.89
71151;BME280;59071;42.138;24.768;2022-07-23T08:25:35;99708.34;;;41.36;18.71
71151;BME280;59071;42.138;24.768;2022-07-23T08:28:02;99702.53;;;41.19;18.68
71151;BME280;59071;42.138;24.768;2022-07-23T08:30:30;99694.69;;;41.03;18.58
71151;BME280;59071;42.138;24.768;2022-07-23T08:33:06;99699.69;;;41.27;17.66
71151;BME280;59071;42.138;24.768;2022-07-23T08:35:39;99691.91;;;41.45;18.22
71151;BME280;59071;42.138;24.768;2022-07-23T08:38:08;99688.91;;;41.67;17.89
71151;BME280;59071;42.138;24.768;2022-07-23T08:40:36;99687.59;;;41.37;18.24
71151;BME280;59071;42.138;24.768;2022-07-23T08:43:09;99684.66;;;41.10;18.45
71151;BME280;59071;42.138;24.768;2022-07-23T08:45:39;99683.28;;;41.32;18.37
71151;BME280;59071;42.138;24.768;2022-07-23T08:48:07;99682.28;;;41.50;18.22
71151;BME280;59071;42.138;24.768;2022-07-23T08:50:34;99687.56;;;41.78;18.19
71151;BME280;59071;42.138;24.768;2022-07-23T08:53:02;99686.16;;;42.25;17.87
71151;BME280;59071;42.138;24.768;2022-07-23T08:55:30;99676.97;;;40.72;18.97
71151;BME280;59071;42.138;24.768;2022-07-23T08:57:55;99673.22;;;41.38;18.85
71151;BME280;59071;42.138;24.768;2022-07-23T09:00:21;99671.41;;;41.59;18.16
71151;BME280;59071;42.138;24.768;2022-07-23T09:02:48;99672.97;;;41.94;18.18
71151;BME280;59071;42.138;24.768;2022-07-23T09:05:15;99669.81;;;41.92;18.10
71151;BME280;59071;42.138;24.768;2022-07-23T09:08:03;99660.94;;;42.83;16.68
71151;BME280;59071;42.138;24.768;2022-07-23T09:10:29;99665.88;;;41.55;17.92
71151;BME280;59071;42.138;24.768;2022-07-23T09:12:54;99657.03;;;41.60;18.07
71151;BME280;59071;42.138;24.768;2022-07-23T09:15:20;99659.25;;;41.76;18.06
71151;BME280;59071;42.138;24.768;2022-07-23T09:17:45;99677.25;;;42.06;17.93
71151;BME280;59071;42.138;24.768;2022-07-23T09:20:15;99672.66;;;42.50;16.65
71151;BME280;59071;42.138;24.768;2022-07-23T09:22:47;99661.31;;;43.32;15.45
71151;BME280;59071;42.138;24.768;2022-07-23T09:25:19;99663.47;;;42.73;16.16
71151;BME280;59071;42.138;24.768;2022-07-23T09:30:14;99656.69;;;42.20;17.28
71151;BME280;59071;42.138;24.768;2022-07-23T09:32:39;99664.75;;;42.42;17.13
71151;BME280;59071;42.138;24.768;2022-07-23T09:35:05;99661.88;;;42.72;16.48
71151;BME280;59071;42.138;24.768;2022-07-23T09:37:31;99644.56;;;43.48;15.93
71151;BME280;59071;42.138;24.768;2022-07-23T09:40:07;99645.84;;;42.76;16.13
71151;BME280;59071;42.138;24.768;2022-07-23T09:42:33;99653.19;;;42.67;16.45
71151;BME280;59071;42.138;24.768;2022-07-23T09:44:59;99639.25;;;42.63;16.80
71151;BME280;59071;42.138;24.768;2022-07-23T09:47:29;99640.25;;;42.76;16.39
71151;BME280;59071;42.138;24.768;2022-07-23T09:50:09;99640.06;;;42.87;15.47
71151;BME280;59071;42.138;24.768;2022-07-23T09:52:49;99640.22;;;43.24;15.46
71151;BME280;59071;42.138;24.768;2022-07-23T09:55:16;99631.56;;;42.44;15.54
71151;BME280;59071;42.138;24.768;2022-07-23T09:57:42;99634.53;;;42.06;15.57
71151;BME280;59071;42.138;24.768;2022-07-23T10:00:13;99629.81;;;41.99;15.94
71151;BME280;59071;42.138;24.768;2022-07-23T10:02:39;99612.09;;;42.13;15.98
71151;BME280;59071;42.138;24.768;2022-07-23T10:05:05;99619.66;;;42.39;16.15
71151;BME280;59071;42.138;24.768;2022-07-23T10:07:34;99625.88;;;42.74;15.64
71151;BME280;59071;42.138;24.768;2022-07-23T10:10:03;99626.69;;;42.75;15.22
71151;BME280;59071;42.138;24.768;2022-07-23T10:12:29;99621.78;;;42.83;15.16
71151;BME280;59071;42.138;24.768;2022-07-23T10:15:04;99617.06;;;42.76;14.90
71151;BME280;59071;42.138;24.768;2022-07-23T10:17:31;99616.91;;;42.87;14.65
71151;BME280;59071;42.138;24.768;2022-07-23T10:19:57;99613.72;;;43.08;14.52
71151;BME280;59071;42.138;24.768;2022-07-23T10:22:25;99613.00;;;43.04;14.29
71151;BME280;59071;42.138;24.768;2022-07-23T10:33:41;99601.84;;;43.24;14.13
71151;BME280;59071;42.138;24.768;2022-07-23T10:41:39;99597.38;;;42.09;13.60
71151;BME280;59071;42.138;24.768;2022-07-23T10:44:13;99584.09;;;42.87;13.33
71151;BME280;59071;42.138;24.768;2022-07-23T10:47:08;99582.31;;;42.53;13.45
71151;BME280;59071;42.138;24.768;2022-07-23T10:49:44;99578.31;;;42.54;13.88
71151;BME280;59071;42.138;24.768;2022-07-23T10:52:21;99572.84;;;42.47;13.88
71151;BME280;59071;42.138;24.768;2022-07-23T10:57:49;99560.44;;;41.94;14.37
71151;BME280;59071;42.138;24.768;2022-07-23T11:00:23;99563.28;;;42.68;13.37
71151;BME280;59071;42.138;24.768;2022-07-23T11:02:53;99563.38;;;42.85;13.36
71151;BME280;59071;42.138;24.768;2022-07-23T11:05:22;99559.31;;;42.18;13.96
71151;BME280;59071;42.138;24.768;2022-07-23T11:10:38;99555.56;;;42.52;14.80
71151;BME280;59071;42.138;24.768;2022-07-23T11:31:58;99534.09;;;43.13;12.80
71151;BME280;59071;42.138;24.768;2022-07-23T11:34:30;99523.59;;;42.53;13.13
71151;BME280;59071;42.138;24.768;2022-07-23T11:36:56;99529.41;;;43.26;12.11
71151;BME280;59071;42.138;24.768;2022-07-23T11:39:24;99516.03;;;42.74;12.59
71151;BME280;59071;42.138;24.768;2022-07-23T11:41:51;99519.66;;;42.27;12.58
71151;BME280;59071;42.138;24.768;2022-07-23T11:44:30;99519.84;;;42.36;13.06
71151;BME280;59071;42.138;24.768;2022-07-23T11:46:57;99529.00;;;42.41;12.56
71151;BME280;59071;42.138;24.768;2022-07-23T11:49:23;99525.69;;;42.46;12.84
71151;BME280;59071;42.138;24.768;2022-07-23T11:54:47;99508.47;;;42.94;12.68
71151;BME280;59071;42.138;24.768;2022-07-23T11:57:12;99513.63;;;42.96;12.77
71151;BME280;59071;42.138;24.768;2022-07-23T11:59:38;99500.19;;;42.87;12.69
71151;BME280;59071;42.138;24.768;2022-07-23T12:02:05;99506.31;;;43.02;12.93
71151;BME280;59071;42.138;24.768;2022-07-23T12:04:51;99505.00;;;43.27;12.66
71151;BME280;59071;42.138;24.768;2022-07-23T12:09:48;99511.34;;;42.91;13.09
71151;BME280;59071;42.138;24.768;2022-07-23T12:12:14;99510.00;;;43.56;12.58
71151;BME280;59071;42.138;24.768;2022-07-23T12:14:54;99494.59;;;43.64;11.98
71151;BME280;59071;42.138;24.768;2022-07-23T12:17:21;99495.00;;;43.26;12.09
71151;BME280;59071;42.138;24.768;2022-07-23T12:19:51;99494.97;;;43.29;12.24
71151;BME280;59071;42.138;24.768;2022-07-23T12:22:17;99487.56;;;43.39;13.02
71151;BME280;59071;42.138;24.768;2022-07-23T12:24:54;99489.13;;;43.40;13.03
71151;BME280;59071;42.138;24.768;2022-07-23T12:27:21;99485.28;;;43.87;12.65
71151;BME280;59071;42.138;24.768;2022-07-23T12:29:47;99477.69;;;44.66;12.24
71151;BME280;59071;42.138;24.768;2022-07-23T12:32:22;99471.78;;;44.31;11.92
71151;BME280;59071;42.138;24.768;2022-07-23T12:35:09;99461.38;;;43.82;11.84
71151;BME280;59071;42.138;24.768;2022-07-23T12:37:37;99468.53;;;43.67;12.54
71151;BME280;59071;42.138;24.768;2022-07-23T12:40:20;99457.94;;;44.07;12.71
71151;BME280;59071;42.138;24.768;2022-07-23T12:42:48;99458.75;;;43.91;12.80
71151;BME280;59071;42.138;24.768;2022-07-23T12:45:14;99453.63;;;44.36;11.84
71151;BME280;59071;42.138;24.768;2022-07-23T12:50:40;99457.72;;;44.64;11.63
71151;BME280;59071;42.138;24.768;2022-07-23T12:53:20;99457.44;;;43.80;11.90
71151;BME280;59071;42.138;24.768;2022-07-23T12:55:47;99441.47;;;43.44;12.09
71151;BME280;59071;42.138;24.768;2022-07-23T12:58:18;99440.84;;;43.36;12.18
71151;BME280;59071;42.138;24.768;2022-07-23T13:00:52;99441.31;;;42.94;12.37
71151;BME280;59071;42.138;24.768;2022-07-23T13:03:25;99439.50;;;43.04;12.88
71151;BME280;59071;42.138;24.768;2022-07-23T13:05:51;99428.28;;;43.61;12.07
71151;BME280;59071;42.138;24.768;2022-07-23T13:08:17;99432.97;;;43.31;12.59
71151;BME280;59071;42.138;24.768;2022-07-23T13:10:43;99423.81;;;43.27;12.54
71151;BME280;59071;42.138;24.768;2022-07-23T13:13:11;99427.75;;;42.93;12.15
71151;BME280;59071;42.138;24.768;2022-07-23T13:15:37;99422.59;;;42.91;12.72
71151;BME280;59071;42.138;24.768;2022-07-23T13:18:02;99422.38;;;43.02;12.31
71151;BME280;59071;42.138;24.768;2022-07-23T13:20:28;99417.75;;;43.32;12.95
71151;BME280;59071;42.138;24.768;2022-07-23T13:22:53;99418.78;;;44.04;12.30
71151;BME280;59071;42.138;24.768;2022-07-23T13:25:19;99420.97;;;43.47;12.30
71151;BME280;59071;42.138;24.768;2022-07-23T13:27:44;99416.16;;;43.31;12.69
71151;BME280;59071;42.138;24.768;2022-07-23T13:30:10;99418.53;;;43.12;12.28
71151;BME280;59071;42.138;24.768;2022-07-23T13:32:36;99421.50;;;43.05;12.95
71151;BME280;59071;42.138;24.768;2022-07-23T13:35:03;99408.03;;;43.37;12.42
71151;BME280;59071;42.138;24.768;2022-07-23T13:37:29;99413.50;;;43.77;11.62
71151;BME280;59071;42.138;24.768;2022-07-23T13:39:54;99414.81;;;43.72;11.54